Time;durP1;ratioP1;P1;durP2;ratioP2;P2;SDS_P1;SDS_P2;PMS_P1;PMS_P2;Temp;Humidity;BMP_temperature;BMP_pressure;BME280_temperature;BME280_humidity;BME280_pressure;Samples;Min_cycle;Max_cycle;Signal;HPM_P1;HPM_P2
2021/09/25 00:00:52;;;;;;;;;;;;;;;22.13;63.93;99598.09;2069224;28;19921;-64
2021/09/25 00:01:53;;;;;;;;;;;;;;;22.13;64.06;99592.59;2078588;28;20217;-64
2021/09/25 00:02:54;;;;;;;;;;;;;;;22.14;63.82;99591.53;2076940;28;20357;-63
2021/09/25 00:03:55;;;;;;;;;;;;;;;22.14;64.05;99583.31;2080148;28;19901;-64
2021/09/25 00:04:55;;;;;;;;;;;;;;;22.14;64.23;99587.94;2072257;28;19913;-63
2021/09/25 00:05:55;;;;;;;;;;;;;;;22.13;63.94;99576.13;2075864;28;19905;-63
2021/09/25 00:06:56;;;;;;;;;;;;;;;22.14;64.15;99585.19;2080262;28;20156;-63
2021/09/25 00:07:56;;;;;;;;;;;;;;;22.13;64.10;99576.13;2076048;28;19960;-64
2021/09/25 00:08:57;;;;;;;;;;;;;;;22.13;63.90;99573.38;2078595;28;19913;-64
2021/09/25 00:09:58;;;;;;;;;;;;;;;22.12;64.07;99574.44;2077252;28;19904;-64
2021/09/25 00:10:58;;;;;;;;;;;;;;;22.13;64.09;99569.78;2074500;28;19921;-63
2021/09/25 00:11:58;;;;;;;;;;;;;;;22.12;63.91;99560.69;2075109;28;19913;-64
2021/09/25 00:12:59;;;;;;;;;;;;;;;22.13;64.25;99562.41;2066106;28;19979;-63
2021/09/25 00:13:59;;;;;;;;;;;;;;;22.12;63.93;99552.47;2069173;28;19913;-64
2021/09/25 00:15:00;;;;;;;;;;;;;;;22.14;64.04;99557.75;2075039;28;19920;-63
2021/09/25 00:16:00;;;;;;;;;;;;;;;22.13;64.16;99548.69;2076308;28;20279;-63
2021/09/25 00:17:00;;;;;;;;;;;;;;;22.12;63.91;99544.22;2075928;28;20338;-64
2021/09/25 00:18:01;;;;;;;;;;;;;;;22.12;64.00;99546.97;2073915;28;19923;-64
2021/09/25 00:19:03;;;;;;;;;;;;;;;22.13;63.87;99547.81;2072108;28;19918;-64
2021/09/25 00:20:04;;;;;;;;;;;;;;;22.12;63.99;99546.97;2075053;28;19966;-63
2021/09/25 00:21:04;;;;;;;;;;;;;;;22.12;63.88;99544.22;2075846;28;19916;-63
2021/09/25 00:22:05;;;;;;;;;;;;;;;22.12;64.16;99546.97;2076279;28;19922;-66
2021/09/25 00:23:06;;;;;;;;;;;;;;;22.12;64.12;99551.59;2083135;28;19912;-66
2021/09/25 00:24:07;;;;;;;;;;;;;;;22.12;63.91;99546.97;2070344;28;19940;-66
2021/09/25 00:25:08;;;;;;;;;;;;;;;22.12;64.08;99552.47;2059614;28;19913;-66
2021/09/25 00:26:08;;;;;;;;;;;;;;;22.12;64.16;99555.22;2069760;28;20083;-66
2021/09/25 00:27:09;;;;;;;;;;;;;;;22.12;64.16;99552.47;2078688;28;19920;-66
2021/09/25 00:28:09;;;;;;;;;;;;;;;22.12;64.03;99544.22;2079387;28;19966;-66
2021/09/25 00:29:09;;;;;;;;;;;;;;;22.12;63.98;99552.47;2077896;28;19948;-66
2021/09/25 00:30:10;;;;;;;;;;;;;;;22.12;63.92;99552.47;2078810;28;19959;-66
2021/09/25 00:31:11;;;;;;;;;;;;;;;22.12;64.02;99544.22;2081553;28;19916;-66
2021/09/25 00:32:11;;;;;;;;;;;;;;;22.12;64.15;99541.50;2068966;28;19964;-66
2021/09/25 00:33:11;;;;;;;;;;;;;;;22.12;64.25;99546.97;2068560;28;20044;-66
2021/09/25 00:34:12;;;;;;;;;;;;;;;22.11;64.05;99545.25;2070978;28;19913;-66
2021/09/25 00:35:13;;;;;;;;;;;;;;;22.12;64.18;99552.47;2076317;28;19944;-65
2021/09/25 00:36:14;;;;;;;;;;;;;;;22.12;63.94;99554.34;2079586;28;19919;-66
2021/09/25 00:37:14;;;;;;;;;;;;;;;22.12;64.12;99557.06;2077336;28;19913;-66
2021/09/25 00:38:14;;;;;;;;;;;;;;;22.12;64.15;99557.97;2081108;28;19913;-66
2021/09/25 00:39:15;;;;;;;;;;;;;;;22.12;64.10;99555.22;2073738;28;19920;-66
2021/09/25 00:40:16;;;;;;;;;;;;;;;22.12;64.07;99552.47;2075402;28;19925;-65
2021/09/25 00:41:17;;;;;;;;;;;;;;;22.11;64.03;99556.22;2078878;28;19951;-66
2021/09/25 00:42:17;;;;;;;;;;;;;;;22.12;64.04;99557.06;2078303;28;19923;-66
2021/09/25 00:43:17;;;;;;;;;;;;;;;22.12;64.03;99560.69;2077534;28;19917;-66
2021/09/25 00:44:19;;;;;;;;;;;;;;;22.11;64.19;99561.72;2079408;28;20332;-66
2021/09/25 00:45:19;;;;;;;;;;;;;;;22.11;64.24;99556.22;2067995;28;20759;-66
2021/09/25 00:46:20;;;;;;;;;;;;;;;22.11;64.00;99561.72;2070449;28;19955;-66
2021/09/25 00:47:20;;;;;;;;;;;;;;;22.11;64.04;99564.47;2080471;28;20282;-66
2021/09/25 00:48:21;;;;;;;;;;;;;;;22.11;64.04;99567.22;2078894;28;20280;-66
2021/09/25 00:49:21;;;;;;;;;;;;;;;22.11;64.02;99569.97;2069582;28;20422;-66
2021/09/25 00:50:25;;;;;;;;;;;;;;;22.12;64.16;99574.44;2069963;28;20020;-66
2021/09/25 00:51:25;;;;;;;;;;;;;;;22.11;64.17;99578.19;2080017;28;19908;-65
2021/09/25 00:52:26;;;;;;;;;;;;;;;22.12;64.04;99574.44;2080699;28;19913;-66
2021/09/25 00:53:26;;;;;;;;;;;;;;;22.11;64.16;99567.22;2082603;28;19913;-66
2021/09/25 00:54:26;;;;;;;;;;;;;;;22.12;64.20;99574.44;2084058;28;19904;-66
2021/09/25 00:55:27;;;;;;;;;;;;;;;22.11;64.03;99561.72;2077590;28;19905;-66
2021/09/25 00:56:28;;;;;;;;;;;;;;;22.11;64.18;99558.97;2080923;28;19904;-66
2021/09/25 00:57:29;;;;;;;;;;;;;;;22.10;64.14;99554.53;2067328;28;20471;-66
2021/09/25 00:58:29;;;;;;;;;;;;;;;22.12;64.07;99557.06;2068420;28;19983;-66
2021/09/25 00:59:30;;;;;;;;;;;;;;;22.11;63.97;99556.22;2082820;28;20061;-66
2021/09/25 01:00:31;;;;;;;;;;;;;;;22.10;63.98;99554.53;2069727;28;20037;-66
2021/09/25 01:01:31;;;;;;;;;;;;;;;22.10;64.30;99554.53;2070453;28;20473;-66
2021/09/25 01:02:34;;;;;;;;;;;;;;;22.11;64.29;99552.63;2082440;28;19912;-66
2021/09/25 01:03:34;;;;;;;;;;;;;;;22.11;64.01;99550.75;2081037;28;19916;-66
2021/09/25 01:04:34;;;;;;;;;;;;;;;22.10;64.20;99549.03;2078983;28;19918;-66
2021/09/25 01:05:35;;;;;;;;;;;;;;;22.10;64.00;99543.56;2078824;28;19912;-66
2021/09/25 01:06:35;;;;;;;;;;;;;;;22.11;63.94;99542.50;2083163;28;19913;-66
2021/09/25 01:07:36;;;;;;;;;;;;;;;22.10;64.05;99549.03;2077576;28;20757;-66
2021/09/25 01:08:36;;;;;;;;;;;;;;;22.11;64.06;99544.41;2079212;28;20897;-66
2021/09/25 01:09:36;;;;;;;;;;;;;;;22.10;63.97;99538.06;2081144;28;20058;-66
2021/09/25 01:10:36;;;;;;;;;;;;;;;22.10;64.08;99538.06;2077229;28;20003;-66
2021/09/25 01:11:37;;;;;;;;;;;;;;;22.09;64.05;99536.34;2077738;28;20419;-66
2021/09/25 01:12:37;;;;;;;;;;;;;;;22.10;64.19;99538.06;2083110;28;19904;-66
2021/09/25 01:13:37;;;;;;;;;;;;;;;22.11;64.04;99544.41;2079055;28;19913;-66
2021/09/25 01:14:38;;;;;;;;;;;;;;;22.10;64.01;99546.31;2080851;28;19908;-66
2021/09/25 01:15:38;;;;;;;;;;;;;;;22.10;63.98;99540.81;2075610;28;19913;-66
2021/09/25 01:16:38;;;;;;;;;;;;;;;22.10;63.98;99546.31;2077473;28;19920;-66
2021/09/25 01:17:39;;;;;;;;;;;;;;;22.10;63.92;99538.06;2078207;28;19919;-66
2021/09/25 01:18:40;;;;;;;;;;;;;;;22.10;64.02;99543.56;2077816;28;19905;-66
2021/09/25 01:19:41;;;;;;;;;;;;;;;22.10;64.21;99549.03;2077219;28;20279;-66
2021/09/25 01:20:42;;;;;;;;;;;;;;;22.10;63.89;99543.56;2065769;28;19990;-66
2021/09/25 01:21:42;;;;;;;;;;;;;;;22.10;64.18;99549.03;2068984;28;20737;-65
2021/09/25 01:22:42;;;;;;;;;;;;;;;22.10;64.05;99548.16;2076083;28;19950;-65
2021/09/25 01:23:43;;;;;;;;;;;;;;;22.09;63.95;99547.31;2077743;28;19919;-65
2021/09/25 01:24:44;;;;;;;;;;;;;;;22.11;64.26;99558.13;2069322;28;19987;-65
2021/09/25 01:25:44;;;;;;;;;;;;;;;22.10;64.03;99553.66;2069133;28;20308;-66
2021/09/25 01:26:44;;;;;;;;;;;;;;;22.10;63.97;99546.31;2078746;28;19913;-66
2021/09/25 01:27:45;;;;;;;;;;;;;;;22.11;63.89;99539.75;2077509;28;19931;-66
2021/09/25 01:28:46;;;;;;;;;;;;;;;22.09;63.96;99539.09;2079777;28;19913;-65
2021/09/25 01:29:46;;;;;;;;;;;;;;;22.10;64.13;99543.56;2077604;28;19935;-66
2021/09/25 01:30:46;;;;;;;;;;;;;;;22.09;64.15;99536.34;2078438;28;19920;-65
2021/09/25 01:31:47;;;;;;;;;;;;;;;22.09;64.13;99530.84;2074704;28;19916;-66
2021/09/25 01:32:48;;;;;;;;;;;;;;;22.09;63.94;99530.84;2077417;28;20237;-65
2021/09/25 01:33:50;;;;;;;;;;;;;;;22.09;63.97;99525.38;2076241;28;20058;-65
2021/09/25 01:34:50;;;;;;;;;;;;;;;22.09;64.28;99536.34;2069344;28;20072;-65
2021/09/25 01:35:51;;;;;;;;;;;;;;;22.09;64.12;99527.25;2069422;28;19920;-66
2021/09/25 01:36:51;;;;;;;;;;;;;;;22.10;63.95;99531.69;2074928;28;20979;-66
2021/09/25 01:37:52;;;;;;;;;;;;;;;22.09;64.05;99530.84;2069618;28;19901;-66
2021/09/25 01:38:53;;;;;;;;;;;;;;;22.10;64.19;99524.34;2067778;28;19913;-65
2021/09/25 01:39:53;;;;;;;;;;;;;;;22.09;64.26;99519.03;2076386;28;19916;-65
2021/09/25 01:40:53;;;;;;;;;;;;;;;22.08;64.30;99512.69;2081938;28;19912;-66
2021/09/25 01:41:53;;;;;;;;;;;;;;;22.08;64.03;99515.44;2084091;28;20550;-65
2021/09/25 01:42:54;;;;;;;;;;;;;;;22.09;63.95;99513.53;2076850;28;19909;-66
2021/09/25 01:43:54;;;;;;;;;;;;;;;22.09;64.03;99517.13;2077954;28;20870;-66
2021/09/25 01:44:54;;;;;;;;;;;;;;;22.08;64.18;99518.19;2078671;28;19974;-65
2021/09/25 01:45:55;;;;;;;;;;;;;;;22.08;64.22;99507.19;2077483;28;19905;-65
2021/09/25 01:46:57;;;;;;;;;;;;;;;22.09;63.96;99503.41;2078502;28;19971;-66
2021/09/25 01:47:57;;;;;;;;;;;;;;;22.08;64.14;99498.97;2078939;28;19947;-66
2021/09/25 01:48:57;;;;;;;;;;;;;;;22.08;64.15;99501.72;2081918;28;19919;-66
2021/09/25 01:50:02;;;;;;;;;;;;;;;22.08;64.03;99498.97;2081854;28;20339;-66
2021/09/25 01:51:05;;;;;;;;;;;;;;;22.07;64.17;99499.97;2078327;28;20202;-66
2021/09/25 01:52:05;;;;;;;;;;;;;;;22.08;64.14;99493.47;2070369;28;19948;-66
2021/09/25 01:53:06;;;;;;;;;;;;;;;22.09;64.17;99491.56;2061030;28;20024;-66
2021/09/25 01:54:07;;;;;;;;;;;;;;;22.07;63.99;99483.53;2068104;28;20229;-66
2021/09/25 01:55:07;;;;;;;;;;;;;;;22.08;64.27;99478.91;2071466;28;19913;-66
2021/09/25 01:56:08;;;;;;;;;;;;;;;22.08;64.00;99484.41;2069153;28;20123;-66
2021/09/25 01:57:09;;;;;;;;;;;;;;;22.07;64.16;99478.03;2075930;28;20159;-66
2021/09/25 01:58:09;;;;;;;;;;;;;;;22.07;64.24;99489.00;2078081;28;19920;-67
2021/09/25 01:59:10;;;;;;;;;;;;;;;22.08;64.16;99484.41;2085172;28;19943;-66
2021/09/25 02:00:11;;;;;;;;;;;;;;;22.07;64.07;99483.53;2083717;28;19928;-66
2021/09/25 02:01:11;;;;;;;;;;;;;;;22.07;64.25;99480.78;2071048;28;19932;-66
2021/09/25 02:02:12;;;;;;;;;;;;;;;22.07;64.17;99475.28;2078184;28;19909;-66
2021/09/25 02:03:12;;;;;;;;;;;;;;;22.08;64.08;99473.41;2085165;28;19912;-66
2021/09/25 02:04:12;;;;;;;;;;;;;;;22.07;64.29;99472.53;2084982;28;19912;-66
2021/09/25 02:05:15;;;;;;;;;;;;;;;22.07;64.25;99478.03;2080367;28;19959;-66
2021/09/25 02:06:15;;;;;;;;;;;;;;;22.06;64.18;99481.81;2078905;28;19915;-66
2021/09/25 02:07:17;;;;;;;;;;;;;;;22.07;64.20;99486.25;2081342;28;19943;-66
2021/09/25 02:08:17;;;;;;;;;;;;;;;22.07;64.01;99489.00;2073925;28;19909;-66
2021/09/25 02:09:17;;;;;;;;;;;;;;;22.07;64.06;99483.53;2068177;28;19904;-66
2021/09/25 02:10:18;;;;;;;;;;;;;;;22.07;64.22;99489.00;2075926;28;19905;-66
2021/09/25 02:11:20;;;;;;;;;;;;;;;22.07;64.22;99489.00;2078241;28;20418;-66
2021/09/25 02:12:20;;;;;;;;;;;;;;;22.07;64.18;99480.78;2076718;28;20904;-66
2021/09/25 02:13:20;;;;;;;;;;;;;;;22.06;64.06;99481.81;2078050;28;19916;-66
2021/09/25 02:14:21;;;;;;;;;;;;;;;22.06;64.24;99476.34;2076351;28;19935;-66
2021/09/25 02:15:21;;;;;;;;;;;;;;;22.07;63.97;99478.03;2068786;28;19920;-66
2021/09/25 02:16:21;;;;;;;;;;;;;;;22.08;64.13;99482.50;2072346;28;20037;-66
2021/09/25 02:17:22;;;;;;;;;;;;;;;22.06;64.21;99481.81;2077929;28;19917;-66
2021/09/25 02:18:23;;;;;;;;;;;;;;;22.07;64.00;99483.53;2078866;28;19994;-66
2021/09/25 02:19:23;;;;;;;;;;;;;;;22.06;64.14;99476.34;2076412;28;19919;-66
2021/09/25 02:20:23;;;;;;;;;;;;;;;22.06;64.16;99476.34;2076741;28;20492;-66
2021/09/25 02:21:23;;;;;;;;;;;;;;;22.07;64.09;99477.19;2077893;28;20385;-66
2021/09/25 02:22:24;;;;;;;;;;;;;;;22.06;64.16;99473.59;2077117;28;19916;-66
2021/09/25 02:23:24;;;;;;;;;;;;;;;22.07;64.06;99471.69;2079051;28;20134;-66
2021/09/25 02:24:25;;;;;;;;;;;;;;;22.07;63.95;99467.06;2077728;28;19912;-66
2021/09/25 02:25:25;;;;;;;;;;;;;;;22.07;64.21;99469.78;2075807;28;20049;-66
2021/09/25 02:26:25;;;;;;;;;;;;;;;22.06;63.94;99465.34;2078884;28;19905;-66
2021/09/25 02:27:26;;;;;;;;;;;;;;;22.05;63.98;99467.25;2075681;28;20374;-66
2021/09/25 02:28:27;;;;;;;;;;;;;;;22.07;63.93;99457.97;2077784;28;20247;-66
2021/09/25 02:29:27;;;;;;;;;;;;;;;22.05;64.04;99452.69;2076718;28;20345;-66
2021/09/25 02:30:27;;;;;;;;;;;;;;;22.05;64.18;99453.53;2079856;28;19917;-66
2021/09/25 02:31:28;;;;;;;;;;;;;;;22.05;64.12;99453.53;2078333;28;19919;-66
2021/09/25 02:32:28;;;;;;;;;;;;;;;22.05;63.98;99452.69;2079015;28;20397;-66
2021/09/25 02:33:28;;;;;;;;;;;;;;;22.06;64.14;99451.63;2078767;28;20684;-66
2021/09/25 02:34:28;;;;;;;;;;;;;;;22.05;63.93;99453.53;2078654;28;20298;-66
2021/09/25 02:35:29;;;;;;;;;;;;;;;22.05;64.17;99456.28;2077774;28;20362;-66
2021/09/25 02:36:30;;;;;;;;;;;;;;;22.06;63.91;99451.63;2080815;28;20361;-66
2021/09/25 02:37:30;;;;;;;;;;;;;;;22.06;63.93;99454.38;2079374;28;19912;-66
2021/09/25 02:38:30;;;;;;;;;;;;;;;22.05;63.99;99448.03;2064925;28;19983;-66
2021/09/25 02:39:32;;;;;;;;;;;;;;;22.06;64.07;99448.88;2068381;28;19917;-66
2021/09/25 02:40:32;;;;;;;;;;;;;;;22.06;64.10;99451.63;2073943;28;19920;-65
2021/09/25 02:41:33;;;;;;;;;;;;;;;22.04;64.19;99445.47;2069652;28;19913;-65
2021/09/25 02:42:33;;;;;;;;;;;;;;;22.05;64.09;99448.03;2078844;28;19924;-65
2021/09/25 02:43:34;;;;;;;;;;;;;;;22.05;64.00;99439.81;2065739;28;19956;-66
2021/09/25 02:44:34;;;;;;;;;;;;;;;22.05;64.08;99441.72;2059604;28;20606;-66
2021/09/25 02:45:35;;;;;;;;;;;;;;;22.05;64.01;99444.44;2067865;28;19909;-66
2021/09/25 02:46:35;;;;;;;;;;;;;;;22.04;64.06;99440.81;2078358;28;20011;-65
2021/09/25 02:47:35;;;;;;;;;;;;;;;22.04;64.03;99438.09;2077754;28;19909;-66
2021/09/25 02:48:36;;;;;;;;;;;;;;;22.05;63.93;99436.22;2076548;28;20031;-65
2021/09/25 02:49:36;;;;;;;;;;;;;;;22.04;64.09;99438.09;2077937;28;20665;-66
2021/09/25 02:50:36;;;;;;;;;;;;;;;22.05;64.00;99444.44;2067754;28;20435;-65
2021/09/25 02:51:37;;;;;;;;;;;;;;;22.06;64.02;99437.91;2070450;28;19943;-66
2021/09/25 02:52:38;;;;;;;;;;;;;;;22.03;64.11;99439.13;2076213;28;19927;-65
2021/09/25 02:53:38;;;;;;;;;;;;;;;22.05;63.86;99441.72;2077939;28;19912;-66
2021/09/25 02:54:38;;;;;;;;;;;;;;;22.04;64.00;99443.56;2077178;28;19913;-66
2021/09/25 02:55:39;;;;;;;;;;;;;;;22.04;64.07;99443.56;2075658;28;19913;-66
2021/09/25 02:56:39;;;;;;;;;;;;;;;22.05;64.27;99447.19;2070000;28;19913;-66
2021/09/25 02:57:41;;;;;;;;;;;;;;;22.05;64.13;99439.81;2068170;28;20276;-66
2021/09/25 02:58:41;;;;;;;;;;;;;;;22.05;64.26;99442.56;2077517;28;19912;-65
2021/09/25 02:59:41;;;;;;;;;;;;;;;22.05;64.01;99438.97;2078516;28;20395;-66
2021/09/25 03:00:42;;;;;;;;;;;;;;;22.05;63.94;99441.72;2068976;28;20423;-65
2021/09/25 03:01:42;;;;;;;;;;;;;;;22.05;64.16;99430.72;2065249;28;20000;-66
2021/09/25 03:02:42;;;;;;;;;;;;;;;22.05;63.98;99430.72;2074219;28;19956;-66
2021/09/25 03:03:43;;;;;;;;;;;;;;;22.05;64.18;99441.72;2072214;28;19920;-66
2021/09/25 03:04:43;;;;;;;;;;;;;;;22.05;64.03;99438.97;2066346;28;19913;-65
2021/09/25 03:05:43;;;;;;;;;;;;;;;22.04;64.01;99435.34;2066220;28;19944;-65
2021/09/25 03:06:44;;;;;;;;;;;;;;;22.05;64.05;99442.56;2072705;28;19917;-65
2021/09/25 03:07:45;;;;;;;;;;;;;;;22.04;63.87;99440.81;2071842;28;19912;-65
2021/09/25 03:08:45;;;;;;;;;;;;;;;22.05;63.86;99430.72;2070563;28;19948;-66
2021/09/25 03:09:47;;;;;;;;;;;;;;;22.05;64.16;99431.56;2073002;28;19919;-65
2021/09/25 03:10:47;;;;;;;;;;;;;;;22.05;63.95;99430.72;2071939;28;19916;-65
2021/09/25 03:11:48;;;;;;;;;;;;;;;22.06;63.73;99435.16;2074934;28;19913;-65
2021/09/25 03:12:49;;;;;;;;;;;;;;;22.04;63.78;99424.38;2073864;28;19935;-65
2021/09/25 03:13:49;;;;;;;;;;;;;;;22.06;63.78;99426.94;2071916;28;20335;-65
2021/09/25 03:14:50;;;;;;;;;;;;;;;22.05;63.69;99430.72;2072775;28;19966;-65
2021/09/25 03:15:50;;;;;;;;;;;;;;;22.05;63.86;99427.97;2074382;28;19909;-66
2021/09/25 03:16:51;;;;;;;;;;;;;;;22.04;63.72;99418.03;2075723;28;19971;-65
2021/09/25 03:17:52;;;;;;;;;;;;;;;22.04;63.77;99423.53;2075366;28;19916;-66
2021/09/25 03:18:52;;;;;;;;;;;;;;;22.04;63.67;99421.63;2065523;28;20557;-65
2021/09/25 03:19:53;;;;;;;;;;;;;;;22.05;63.63;99425.25;2061208;28;19913;-65
2021/09/25 03:20:53;;;;;;;;;;;;;;;22.03;63.67;99416.34;2059913;28;20100;-65
2021/09/25 03:21:54;;;;;;;;;;;;;;;22.03;63.68;99421.81;2065864;28;20394;-65
2021/09/25 03:22:54;;;;;;;;;;;;;;;22.04;63.74;99420.78;2076378;28;20087;-65
2021/09/25 03:23:54;;;;;;;;;;;;;;;22.04;63.63;99429.84;2077050;28;20098;-65
2021/09/25 03:24:54;;;;;;;;;;;;;;;22.05;63.91;99430.72;2077279;28;19916;-65
2021/09/25 03:25:55;;;;;;;;;;;;;;;22.04;63.56;99443.56;2067268;28;19977;-64
2021/09/25 03:26:55;;;;;;;;;;;;;;;22.05;63.68;99436.22;2064473;28;19912;-63
2021/09/25 03:27:55;;;;;;;;;;;;;;;22.05;63.63;99441.72;2076961;28;20437;-65
2021/09/25 03:28:56;;;;;;;;;;;;;;;22.05;63.44;99436.22;2071364;28;19909;-66
2021/09/25 03:29:56;;;;;;;;;;;;;;;22.04;63.64;99434.50;2075627;28;19951;-68
2021/09/25 03:30:56;;;;;;;;;;;;;;;22.05;63.66;99430.72;2076092;28;19951;-66
2021/09/25 03:31:57;;;;;;;;;;;;;;;22.05;63.66;99426.09;2082304;28;19908;-67
2021/09/25 03:32:57;;;;;;;;;;;;;;;22.05;63.68;99427.97;2076095;28;20354;-65
2021/09/25 03:33:57;;;;;;;;;;;;;;;22.06;63.85;99426.94;2077776;28;19965;-65
2021/09/25 03:34:58;;;;;;;;;;;;;;;22.06;63.68;99426.94;2073432;28;19904;-66
2021/09/25 03:35:58;;;;;;;;;;;;;;;22.07;63.66;99433.28;2071929;28;20679;-66
2021/09/25 03:36:58;;;;;;;;;;;;;;;22.06;63.86;99437.91;2076435;28;19905;-66
2021/09/25 03:38:00;;;;;;;;;;;;;;;22.07;63.76;99434.13;2077796;28;19912;-66
2021/09/25 03:39:00;;;;;;;;;;;;;;;22.07;63.72;99428.63;2077878;28;20019;-66
2021/09/25 03:40:01;;;;;;;;;;;;;;;22.08;63.72;99435.00;2076477;28;19916;-66
2021/09/25 03:41:01;;;;;;;;;;;;;;;22.08;63.87;99445.97;2072909;28;20383;-66
2021/09/25 03:42:02;;;;;;;;;;;;;;;22.09;63.59;99450.41;2073167;28;20120;-66
2021/09/25 03:43:02;;;;;;;;;;;;;;;22.08;63.92;99452.31;2072421;28;19951;-66
2021/09/25 03:44:03;;;;;;;;;;;;;;;22.09;63.71;99454.00;2072994;28;20621;-66
2021/09/25 03:45:04;;;;;;;;;;;;;;;22.09;63.75;99448.50;2073282;28;19959;-66
2021/09/25 03:46:04;;;;;;;;;;;;;;;22.10;63.90;99452.97;2078627;28;19917;-66
2021/09/25 03:47:04;;;;;;;;;;;;;;;22.10;63.63;99460.34;2076334;28;19913;-67
2021/09/25 03:48:05;;;;;;;;;;;;;;;22.10;63.86;99465.81;2077349;28;19905;-67
2021/09/25 03:49:07;;;;;;;;;;;;;;;22.11;63.96;99467.56;2068976;28;19912;-65
2021/09/25 03:50:07;;;;;;;;;;;;;;;22.10;63.95;99474.94;2066928;28;20805;-65
2021/09/25 03:51:08;;;;;;;;;;;;;;;22.10;63.75;99472.19;2074723;28;20703;-64
2021/09/25 03:52:09;;;;;;;;;;;;;;;22.12;63.72;99474.72;2064090;28;19975;-65
2021/09/25 03:53:09;;;;;;;;;;;;;;;22.12;63.72;99480.22;2071185;28;19905;-65
2021/09/25 03:54:10;;;;;;;;;;;;;;;22.12;63.74;99486.59;2069414;28;20381;-65
2021/09/25 03:55:10;;;;;;;;;;;;;;;22.12;63.76;99486.59;2067987;28;20303;-66
2021/09/25 03:56:11;;;;;;;;;;;;;;;22.13;63.76;99484.69;2081256;28;19944;-65
2021/09/25 03:57:11;;;;;;;;;;;;;;;22.12;63.78;99486.59;2075251;28;19905;-66
2021/09/25 03:58:12;;;;;;;;;;;;;;;22.12;63.86;99486.59;2076246;28;20153;-65
2021/09/25 03:59:12;;;;;;;;;;;;;;;22.13;63.78;99493.78;2078373;28;20607;-65
2021/09/25 04:00:12;;;;;;;;;;;;;;;22.13;63.73;99491.03;2069140;28;19936;-66
2021/09/25 04:01:13;;;;;;;;;;;;;;;22.12;63.75;99483.84;2070593;28;20269;-65
2021/09/25 04:02:14;;;;;;;;;;;;;;;22.12;63.86;99482.97;2070619;28;19905;-65
2021/09/25 04:03:14;;;;;;;;;;;;;;;22.12;63.93;99480.22;2073251;28;20126;-65
2021/09/25 04:04:15;;;;;;;;;;;;;;;22.13;63.87;99480.06;2075154;28;19918;-65
2021/09/25 04:05:15;;;;;;;;;;;;;;;22.13;63.69;99477.31;2074693;28;20697;-66
2021/09/25 04:06:15;;;;;;;;;;;;;;;22.12;64.12;99470.13;2078150;28;19999;-66
2021/09/25 04:07:16;;;;;;;;;;;;;;;22.12;63.60;99472.88;2070405;28;20722;-66
2021/09/25 04:08:16;;;;;;;;;;;;;;;22.13;63.81;99466.31;2075997;28;20771;-67
2021/09/25 04:09:16;;;;;;;;;;;;;;;22.13;63.99;99465.47;2070905;28;20090;-65
2021/09/25 04:10:17;;;;;;;;;;;;;;;22.12;63.83;99461.88;2074691;28;19919;-66
2021/09/25 04:11:17;;;;;;;;;;;;;;;22.12;63.79;99459.16;2072059;28;20458;-66
2021/09/25 04:12:17;;;;;;;;;;;;;;;22.12;63.90;99453.66;2066682;28;19949;-66
2021/09/25 04:13:17;;;;;;;;;;;;;;;22.12;63.94;99441.78;2072015;28;19991;-66
2021/09/25 04:14:19;;;;;;;;;;;;;;;22.11;64.04;99440.94;2066737;28;19909;-67
2021/09/25 04:15:20;;;;;;;;;;;;;;;22.12;63.74;99434.44;2070622;28;19905;-69
2021/09/25 04:16:20;;;;;;;;;;;;;;;22.11;63.69;99432.72;2069268;28;20319;-68
2021/09/25 04:17:21;;;;;;;;;;;;;;;22.12;63.86;99431.69;2070567;28;19905;-68
2021/09/25 04:18:21;;;;;;;;;;;;;;;22.13;63.61;99433.38;2072587;28;19928;-68
2021/09/25 04:19:22;;;;;;;;;;;;;;;22.11;63.83;99435.47;2064145;28;19967;-68
2021/09/25 04:20:22;;;;;;;;;;;;;;;22.13;63.76;99435.28;2070758;28;19920;-68
2021/09/25 04:21:23;;;;;;;;;;;;;;;22.13;63.91;99438.03;2067985;28;19919;-67
2021/09/25 04:22:23;;;;;;;;;;;;;;;22.13;63.74;99444.38;2069524;28;19959;-67
2021/09/25 04:23:23;;;;;;;;;;;;;;;22.14;63.91;99464.44;2069064;28;20370;-67
2021/09/25 04:24:24;;;;;;;;;;;;;;;22.14;63.78;99470.75;2070677;28;19913;-67
2021/09/25 04:25:30;;;;;;;;;;;;;;;22.14;63.88;99479.00;2067820;28;19905;-66
2021/09/25 04:26:30;;;;;;;;;;;;;;;22.14;64.00;99473.50;2067005;28;19913;-67
2021/09/25 04:27:31;;;;;;;;;;;;;;;22.14;63.86;99473.50;2069187;28;19921;-66
2021/09/25 04:28:31;;;;;;;;;;;;;;;22.14;63.91;99473.50;2068100;28;19921;-66
2021/09/25 04:29:31;;;;;;;;;;;;;;;22.15;63.98;99463.41;2060576;28;19913;-66
2021/09/25 04:30:32;;;;;;;;;;;;;;;22.15;63.79;99461.50;2065553;28;19913;-67
2021/09/25 04:31:34;;;;;;;;;;;;;;;22.15;63.84;99464.25;2062940;28;19916;-66
2021/09/25 04:32:34;;;;;;;;;;;;;;;22.15;63.91;99468.91;2064168;28;20389;-66
2021/09/25 04:33:35;;;;;;;;;;;;;;;22.15;63.81;99469.75;2068290;28;19974;-67
2021/09/25 04:34:35;;;;;;;;;;;;;;;22.16;63.96;99476.09;2071636;28;19960;-69
2021/09/25 04:35:36;;;;;;;;;;;;;;;22.16;64.07;99482.41;2072231;28;19921;-67
2021/09/25 04:36:38;;;;;;;;;;;;;;;22.16;63.94;99479.69;2068953;28;19913;-68
2021/09/25 04:37:39;;;;;;;;;;;;;;;22.16;63.92;99484.31;2068589;28;20039;-66
2021/09/25 04:38:40;;;;;;;;;;;;;;;22.16;63.86;99487.91;2068551;28;19971;-66
2021/09/25 04:39:40;;;;;;;;;;;;;;;22.15;63.92;99486.22;2068520;28;19905;-68
2021/09/25 04:40:40;;;;;;;;;;;;;;;22.15;64.04;99488.97;2070028;28;19920;-68
2021/09/25 04:41:41;;;;;;;;;;;;;;;22.15;63.91;99497.19;2069225;28;19916;-66
2021/09/25 04:42:42;;;;;;;;;;;;;;;22.16;64.14;99498.88;2074934;28;20346;-65
2021/09/25 04:43:43;;;;;;;;;;;;;;;22.16;63.66;99501.63;2065068;28;20404;-65
2021/09/25 04:44:43;;;;;;;;;;;;;;;22.17;63.75;99497.00;2065497;28;20284;-65
2021/09/25 04:45:43;;;;;;;;;;;;;;;22.17;63.86;99495.13;2068179;28;19929;-66
2021/09/25 04:46:45;;;;;;;;;;;;;;;22.17;63.95;99488.75;2069035;28;20000;-67
2021/09/25 04:47:45;;;;;;;;;;;;;;;22.16;63.82;99487.06;2065396;28;20388;-67
2021/09/25 04:48:48;;;;;;;;;;;;;;;22.17;63.80;99486.88;2067260;28;19978;-66
2021/09/25 04:49:49;;;;;;;;;;;;;;;22.17;63.70;99472.28;2073333;28;20249;-66
2021/09/25 04:50:49;;;;;;;;;;;;;;;22.16;63.91;99474.19;2061657;28;20230;-67
2021/09/25 04:51:49;;;;;;;;;;;;;;;22.17;63.73;99483.25;2061401;28;20047;-67
2021/09/25 04:52:50;;;;;;;;;;;;;;;22.16;63.78;99487.91;2067525;28;21069;-67
2021/09/25 04:53:50;;;;;;;;;;;;;;;22.18;63.72;99493.22;2065237;28;19984;-67
2021/09/25 04:54:50;;;;;;;;;;;;;;;22.17;63.96;99500.63;2065791;28;20693;-66
2021/09/25 04:55:51;;;;;;;;;;;;;;;22.17;63.81;99497.88;2065144;28;20690;-66
2021/09/25 04:56:51;;;;;;;;;;;;;;;22.17;63.80;99500.63;2068229;28;20323;-66
2021/09/25 04:57:51;;;;;;;;;;;;;;;22.16;63.80;99493.41;2066920;28;19948;-66
2021/09/25 04:58:52;;;;;;;;;;;;;;;22.16;63.75;99498.88;2068227;28;20579;-65
2021/09/25 04:59:52;;;;;;;;;;;;;;;22.16;64.02;99487.91;2073405;28;20702;-66
2021/09/25 05:00:52;;;;;;;;;;;;;;;22.16;64.00;99487.06;2070730;28;20038;-63
2021/09/25 05:01:52;;;;;;;;;;;;;;;22.16;63.84;99487.06;2076989;28;19940;-63
2021/09/25 05:02:53;;;;;;;;;;;;;;;22.15;63.92;99488.13;2075830;28;19916;-63
2021/09/25 05:03:53;;;;;;;;;;;;;;;22.14;63.58;99480.91;2078117;28;19912;-63
2021/09/25 05:04:53;;;;;;;;;;;;;;;22.13;63.75;99477.31;2075296;28;20068;-62
2021/09/25 05:05:54;;;;;;;;;;;;;;;22.14;63.74;99473.50;2077430;28;20347;-63
2021/09/25 05:06:54;;;;;;;;;;;;;;;22.13;63.66;99476.47;2079174;28;19913;-63
2021/09/25 05:07:54;;;;;;;;;;;;;;;22.13;63.93;99476.47;2079412;28;19912;-63
2021/09/25 05:08:55;;;;;;;;;;;;;;;22.11;63.94;99462.91;2086093;28;19904;-63
2021/09/25 05:09:55;;;;;;;;;;;;;;;22.11;63.83;99462.91;2076405;28;20011;-63
2021/09/25 05:10:55;;;;;;;;;;;;;;;22.11;63.69;99462.91;2076120;28;19924;-63
2021/09/25 05:11:56;;;;;;;;;;;;;;;22.10;63.92;99461.22;2087189;28;19912;-63
2021/09/25 05:12:56;;;;;;;;;;;;;;;22.10;63.65;99461.22;2078983;28;19916;-63
2021/09/25 05:13:57;;;;;;;;;;;;;;;22.09;63.73;99462.22;2076922;28;19952;-63
2021/09/25 05:14:57;;;;;;;;;;;;;;;22.09;63.72;99459.50;2074732;28;20395;-62
2021/09/25 05:15:58;;;;;;;;;;;;;;;22.10;63.82;99449.34;2073228;28;20317;-63